Time;durP1;ratioP1;P1;durP2;ratioP2;P2;SDS_P1;SDS_P2;PMS_P1;PMS_P2;Temp;Humidity;BMP_temperature;BMP_pressure;BME280_temperature;BME280_humidity;BME280_pressure;Samples;Min_cycle;Max_cycle;Signal;HPM_P1;HPM_P2
2021/10/09 00:01:55;;;;;;;29.80;17.80;;;13.30;99.90;;;;;;5019603;28;20188;-69
2021/10/09 00:04:21;;;;;;;33.63;18.60;;;13.30;99.90;;;;;;5008352;28;20674;-69
2021/10/09 00:06:47;;;;;;;30.73;19.00;;;13.20;99.90;;;;;;5019490;28;20192;-69
2021/10/09 00:09:12;;;;;;;27.87;17.70;;;13.30;99.90;;;;;;5023306;28;20647;-69
2021/10/09 00:11:38;;;;;;;32.27;19.20;;;13.20;99.90;;;;;;5023694;28;20184;-69
2021/10/09 00:14:13;;;;;;;29.60;18.37;;;13.20;99.90;;;;;;5022571;28;20220;-69
2021/10/09 00:16:42;;;;;;;26.40;18.53;;;13.30;99.90;;;;;;5018169;28;20192;-69
2021/10/09 00:19:08;;;;;;;29.40;17.60;;;13.30;99.90;;;;;;5019803;28;20469;-69
2021/10/09 00:21:34;;;;;;;28.10;19.27;;;13.20;99.90;;;;;;5025299;28;20415;-69
2021/10/09 00:24:00;;;;;;;31.13;19.47;;;13.30;99.90;;;;;;5018592;28;20962;-69
2021/10/09 00:26:27;;;;;;;27.47;19.27;;;13.20;99.90;;;;;;5022642;28;21094;-68
2021/10/09 00:28:52;;;;;;;23.83;17.23;;;13.20;99.90;;;;;;5018188;28;20509;-69
2021/10/09 00:31:18;;;;;;;25.97;18.53;;;13.10;99.90;;;;;;5021896;28;20857;-69
2021/10/09 00:33:44;;;;;;;24.97;17.90;;;13.00;99.90;;;;;;5028648;28;20189;-69
2021/10/09 00:36:09;;;;;;;27.30;18.43;;;13.10;99.90;;;;;;5022737;28;20196;-69
2021/10/09 00:38:35;;;;;;;25.13;18.03;;;13.20;99.90;;;;;;5021513;28;20625;-69
2021/10/09 00:41:01;;;;;;;23.47;18.37;;;13.20;99.90;;;;;;5018428;28;20260;-69
2021/10/09 00:43:27;;;;;;;27.80;18.93;;;13.20;99.90;;;;;;5022107;28;20219;-69
2021/10/09 00:45:56;;;;;;;23.97;17.30;;;13.20;99.90;;;;;;5023134;28;20475;-69
2021/10/09 00:48:23;;;;;;;26.30;18.37;;;13.20;99.90;;;;;;5021975;28;20675;-69
2021/10/09 00:50:48;;;;;;;27.53;17.80;;;13.20;99.90;;;;;;5022122;28;20439;-69
2021/10/09 00:53:15;;;;;;;24.40;17.97;;;13.20;99.90;;;;;;5020531;28;20435;-69
2021/10/09 00:55:41;;;;;;;25.90;19.20;;;13.20;99.90;;;;;;5023480;28;20192;-68
2021/10/09 00:58:08;;;;;;;34.73;19.47;;;13.10;99.90;;;;;;5024103;28;20523;-69
2021/10/09 01:00:35;;;;;;;29.43;19.60;;;13.10;99.90;;;;;;5023193;28;20871;-69
2021/10/09 01:03:03;;;;;;;30.50;18.87;;;13.20;99.90;;;;;;5019838;28;20943;-69
2021/10/09 01:05:29;;;;;;;33.07;19.70;;;13.10;99.90;;;;;;5021525;28;20426;-69
2021/10/09 01:07:55;;;;;;;28.50;18.33;;;13.10;99.90;;;;;;5021706;28;20825;-68
2021/10/09 01:10:21;;;;;;;24.80;19.20;;;12.80;99.90;;;;;;5020223;28;20424;-69
2021/10/09 01:12:46;;;;;;;26.97;19.10;;;13.00;99.90;;;;;;5023771;28;20288;-69
2021/10/09 01:15:24;;;;;;;26.83;18.60;;;13.00;99.90;;;;;;5022044;28;20565;-69
2021/10/09 01:17:50;;;;;;;26.70;19.40;;;13.00;99.90;;;;;;5020423;28;20212;-69
2021/10/09 01:20:16;;;;;;;24.57;17.03;;;12.90;99.90;;;;;;5023277;28;20828;-69
2021/10/09 01:22:44;;;;;;;32.23;20.27;;;12.90;99.90;;;;;;5024813;28;20738;-69
2021/10/09 01:25:10;;;;;;;28.70;19.30;;;12.80;99.90;;;;;;5021604;28;20447;-69
2021/10/09 01:27:39;;;;;;;26.73;17.80;;;12.90;99.90;;;;;;5024767;28;20431;-69
2021/10/09 01:30:06;;;;;;;24.93;18.07;;;12.80;99.90;;;;;;5023019;28;20234;-69
2021/10/09 01:32:31;;;;;;;27.10;18.60;;;12.80;99.90;;;;;;5021610;28;20427;-69
2021/10/09 01:34:57;;;;;;;26.40;18.80;;;12.80;99.90;;;;;;5019818;28;20966;-69
2021/10/09 01:37:22;;;;;;;26.80;18.63;;;12.70;99.90;;;;;;5020775;28;20215;-69
2021/10/09 01:39:49;;;;;;;27.97;19.10;;;12.70;99.90;;;;;;5022562;28;20245;-69
2021/10/09 01:42:14;;;;;;;26.03;20.10;;;12.70;99.90;;;;;;5022448;28;20186;-69
2021/10/09 01:44:40;;;;;;;25.23;18.93;;;12.60;99.90;;;;;;5019132;28;20856;-69
2021/10/09 01:47:06;;;;;;;32.07;19.57;;;12.60;99.90;;;;;;5018787;28;20180;-69
2021/10/09 01:49:32;;;;;;;28.43;17.90;;;12.60;99.90;;;;;;5022596;28;20998;-69
2021/10/09 01:51:58;;;;;;;30.00;20.53;;;12.60;99.90;;;;;;5019294;28;20199;-69
2021/10/09 01:54:24;;;;;;;22.87;17.30;;;12.60;99.90;;;;;;5027086;28;20415;-69
2021/10/09 01:56:49;;;;;;;28.03;19.70;;;12.50;99.90;;;;;;5024392;28;20292;-69
2021/10/09 01:59:15;;;;;;;25.77;17.97;;;12.40;99.90;;;;;;5026467;28;20208;-70
2021/10/09 02:01:41;;;;;;;31.63;18.50;;;12.40;99.90;;;;;;5025143;28;20548;-68
2021/10/09 02:04:07;;;;;;;25.83;17.97;;;12.40;99.90;;;;;;5024178;28;20442;-69
2021/10/09 02:06:33;;;;;;;32.40;20.13;;;12.50;99.90;;;;;;5026308;28;20192;-69
2021/10/09 02:08:59;;;;;;;25.60;18.53;;;12.40;99.90;;;;;;5026432;28;20204;-68
2021/10/09 02:11:27;;;;;;;29.27;18.80;;;12.40;99.90;;;;;;5024306;28;20480;-69
2021/10/09 02:24:51;;;;;;;28.07;18.10;;;12.10;99.90;;;;;;5028734;28;20446;-69
2021/10/09 02:27:17;;;;;;;27.97;17.70;;;12.20;99.90;;;;;;5024727;28;20435;-69
2021/10/09 02:29:43;;;;;;;25.70;17.70;;;12.20;99.90;;;;;;5024314;28;20860;-69
2021/10/09 02:32:08;;;;;;;25.10;18.00;;;12.10;99.90;;;;;;5024389;28;20189;-69
2021/10/09 02:34:34;;;;;;;27.30;17.17;;;12.00;99.90;;;;;;5025319;28;20189;-69
2021/10/09 02:36:59;;;;;;;26.70;17.33;;;11.90;99.90;;;;;;5024009;28;20197;-69
2021/10/09 02:39:25;;;;;;;23.47;17.40;;;11.90;99.90;;;;;;5025356;28;20686;-69
2021/10/09 02:41:52;;;;;;;22.90;17.70;;;11.90;99.90;;;;;;5019289;28;20334;-68
2021/10/09 02:44:19;;;;;;;26.17;17.43;;;11.90;99.90;;;;;;5025574;28;20250;-69
2021/10/09 02:46:45;;;;;;;26.67;19.07;;;12.00;99.90;;;;;;5024208;28;20954;-68
2021/10/09 02:49:11;;;;;;;24.57;17.67;;;12.00;99.90;;;;;;5024401;28;20451;-69
2021/10/09 02:51:36;;;;;;;27.83;17.27;;;12.00;99.90;;;;;;5027979;28;20185;-69
2021/10/09 02:54:02;;;;;;;27.00;18.40;;;12.00;99.90;;;;;;5024442;28;20283;-69
2021/10/09 02:56:28;;;;;;;29.43;18.17;;;12.10;99.90;;;;;;5025348;28;20203;-69
2021/10/09 02:58:54;;;;;;;28.57;18.87;;;12.00;99.90;;;;;;5023814;28;20749;-69
2021/10/09 03:01:19;;;;;;;28.23;18.10;;;12.00;99.90;;;;;;5023418;28;20455;-69
2021/10/09 03:03:45;;;;;;;27.40;18.20;;;12.00;99.90;;;;;;5024173;28;20192;-69
2021/10/09 03:06:10;;;;;;;30.30;19.17;;;11.90;99.90;;;;;;5025294;28;20180;-69
2021/10/09 03:08:36;;;;;;;28.57;17.60;;;11.90;99.90;;;;;;5022845;28;20217;-69
2021/10/09 03:11:02;;;;;;;25.70;17.70;;;11.90;99.90;;;;;;5023650;28;20201;-69
2021/10/09 03:13:27;;;;;;;24.13;18.40;;;12.00;99.90;;;;;;5026884;28;20212;-69
2021/10/09 03:15:53;;;;;;;25.20;18.00;;;11.90;99.90;;;;;;5026558;28;20193;-69
2021/10/09 03:18:19;;;;;;;26.87;17.67;;;11.80;99.90;;;;;;5025421;28;20223;-68
2021/10/09 03:20:44;;;;;;;23.90;17.00;;;11.80;99.90;;;;;;5020700;28;20197;-69
2021/10/09 03:23:11;;;;;;;27.20;19.40;;;11.80;99.90;;;;;;5024400;28;20185;-70
2021/10/09 03:25:37;;;;;;;27.43;17.57;;;11.70;99.90;;;;;;5023452;28;20326;-69
2021/10/09 03:28:03;;;;;;;27.20;18.67;;;11.70;99.90;;;;;;5004336;28;20530;-70
2021/10/09 03:30:28;;;;;;;25.23;17.57;;;11.80;99.90;;;;;;5021827;28;20196;-69
2021/10/09 03:32:54;;;;;;;27.17;18.97;;;11.80;99.90;;;;;;5024136;28;20428;-69
2021/10/09 03:35:20;;;;;;;30.03;18.83;;;11.70;99.90;;;;;;5021197;28;20299;-69
2021/10/09 03:37:45;;;;;;;25.80;17.40;;;11.60;99.90;;;;;;5020245;28;20231;-69
2021/10/09 03:40:15;;;;;;;25.93;18.50;;;11.70;99.90;;;;;;5025606;28;20243;-69
2021/10/09 03:42:50;;;;;;;28.60;18.97;;;11.70;99.90;;;;;;5021408;28;20196;-70
2021/10/09 03:45:35;;;;;;;28.20;19.57;;;11.70;99.90;;;;;;5020068;28;20430;-69
2021/10/09 03:53:02;;;;;;;24.73;16.60;;;11.70;99.90;;;;;;5024104;28;20559;-68
2021/10/09 03:55:27;;;;;;;27.47;17.13;;;11.70;99.90;;;;;;5024297;28;20957;-69
2021/10/09 03:57:53;;;;;;;29.90;18.30;;;11.70;99.90;;;;;;5020449;28;20471;-69
2021/10/09 04:00:19;;;;;;;25.37;18.10;;;11.70;99.90;;;;;;5023713;28;20187;-69
2021/10/09 04:02:45;;;;;;;29.83;18.53;;;11.60;99.90;;;;;;5027688;28;20200;-69
2021/10/09 04:05:11;;;;;;;27.03;17.20;;;11.60;99.90;;;;;;5020949;28;20432;-69
2021/10/09 04:07:36;;;;;;;24.00;17.10;;;11.60;99.90;;;;;;5024112;28;20221;-69
2021/10/09 04:10:06;;;;;;;26.80;18.03;;;11.60;99.90;;;;;;5024024;28;20271;-69
2021/10/09 04:12:32;;;;;;;22.10;17.20;;;11.50;99.90;;;;;;5020687;28;20790;-69
2021/10/09 04:14:59;;;;;;;31.33;19.33;;;11.60;99.90;;;;;;5024284;28;20447;-69
2021/10/09 04:17:24;;;;;;;30.33;18.30;;;11.60;99.90;;;;;;5023544;28;20475;-69
2021/10/09 04:19:50;;;;;;;23.30;17.03;;;11.70;99.90;;;;;;5023515;28;20513;-69
2021/10/09 04:22:16;;;;;;;21.77;17.37;;;11.60;99.90;;;;;;5020729;28;20658;-69
2021/10/09 04:24:41;;;;;;;28.23;18.03;;;11.50;99.90;;;;;;5022287;28;20204;-69
2021/10/09 04:27:07;;;;;;;26.07;17.60;;;11.60;99.90;;;;;;5023021;28;20215;-69
2021/10/09 04:29:33;;;;;;;27.80;18.33;;;11.50;99.90;;;;;;5025020;28;20271;-69
2021/10/09 04:31:58;;;;;;;26.97;17.83;;;11.50;99.90;;;;;;5017922;28;20272;-69
2021/10/09 04:34:24;;;;;;;29.07;19.63;;;11.50;99.90;;;;;;5021945;28;20221;-69
2021/10/09 04:36:50;;;;;;;23.63;17.10;;;11.60;99.90;;;;;;5022011;28;20179;-69
2021/10/09 04:39:16;;;;;;;23.60;17.53;;;11.50;99.90;;;;;;5021840;28;20776;-69
2021/10/09 04:41:42;;;;;;;27.60;18.37;;;11.50;99.90;;;;;;5022535;28;20567;-69
2021/10/09 04:44:08;;;;;;;28.30;18.83;;;11.30;99.90;;;;;;5025915;28;20185;-68
2021/10/09 04:46:33;;;;;;;26.27;18.40;;;11.40;99.90;;;;;;5021237;28;20189;-68
2021/10/09 04:49:00;;;;;;;25.00;18.27;;;11.40;99.90;;;;;;5024650;28;20460;-69
2021/10/09 04:51:26;;;;;;;25.37;18.80;;;11.40;99.90;;;;;;5022133;28;20573;-70
2021/10/09 04:53:52;;;;;;;27.87;20.10;;;11.40;99.90;;;;;;5023268;28;20530;-68
2021/10/09 04:56:17;;;;;;;26.43;17.73;;;11.50;99.90;;;;;;5003051;28;20985;-69
2021/10/09 04:58:43;;;;;;;24.90;17.60;;;11.40;99.90;;;;;;5021768;28;20263;-69
2021/10/09 05:01:08;;;;;;;27.97;18.67;;;11.40;99.90;;;;;;5022915;28;20197;-69
2021/10/09 05:03:34;;;;;;;27.67;21.23;;;11.40;99.90;;;;;;5020707;28;20263;-69
2021/10/09 05:06:00;;;;;;;27.50;18.50;;;11.20;99.90;;;;;;5021685;28;20601;-68
2021/10/09 05:08:26;;;;;;;31.70;19.10;;;11.00;99.90;;;;;;5022089;28;20212;-69
2021/10/09 05:10:51;;;;;;;29.03;20.80;;;11.10;99.90;;;;;;5022198;28;20471;-69
2021/10/09 05:13:17;;;;;;;27.97;19.13;;;11.10;99.90;;;;;;5023997;28;20204;-69
2021/10/09 05:15:45;;;;;;;27.23;17.87;;;11.10;99.90;;;;;;5021038;28;20188;-69
2021/10/09 05:18:11;;;;;;;27.10;18.73;;;11.20;99.90;;;;;;5022302;28;20573;-69
2021/10/09 05:20:38;;;;;;;29.87;19.30;;;11.10;99.90;;;;;;5024232;28;20439;-68
2021/10/09 05:23:04;;;;;;;26.77;18.87;;;11.10;99.90;;;;;;5021594;28;20423;-68
2021/10/09 05:25:32;;;;;;;31.37;19.10;;;11.00;99.90;;;;;;5020097;28;20778;-69
2021/10/09 05:28:06;;;;;;;34.03;21.20;;;11.10;99.90;;;;;;5025378;28;20442;-69
2021/10/09 05:30:33;;;;;;;27.10;18.80;;;11.10;99.90;;;;;;5023834;28;20485;-69
2021/10/09 05:35:37;;;;;;;30.60;17.93;;;11.10;99.90;;;;;;5026518;28;20500;-69
2021/10/09 05:38:03;;;;;;;27.67;20.50;;;11.00;99.90;;;;;;5024995;28;20479;-69
2021/10/09 05:40:28;;;;;;;31.20;18.57;;;11.00;99.90;;;;;;5027898;28;20469;-69
2021/10/09 05:42:54;;;;;;;27.20;18.30;;;11.10;99.90;;;;;;5024983;28;20189;-68
2021/10/09 05:45:20;;;;;;;27.27;18.60;;;11.00;99.90;;;;;;5022074;28;20193;-69
2021/10/09 05:47:48;;;;;;;31.07;18.03;;;11.00;99.90;;;;;;5022726;28;20504;-69
2021/10/09 05:50:15;;;;;;;27.57;18.47;;;10.90;99.90;;;;;;5029121;28;20588;-68
2021/10/09 05:52:49;;;;;;;26.70;18.10;;;11.00;99.90;;;;;;5024219;28;20450;-69
2021/10/09 05:55:19;;;;;;;26.80;20.43;;;11.00;99.90;;;;;;5030078;28;20444;-69
2021/10/09 06:25:42;;;;;;;27.27;16.80;;;11.00;99.90;;;;;;5021682;28;20463;-69
2021/10/09 06:31:47;;;;;;;24.77;17.70;;;11.20;99.90;;;;;;5023227;28;20435;-69
2021/10/09 06:50:07;;;;;;;25.03;18.20;;;11.20;99.90;;;;;;5024741;28;20891;-68
2021/10/09 07:00:46;;;;;;;32.73;17.73;;;11.10;99.90;;;;;;5022465;28;21266;-68
2021/10/09 07:03:17;;;;;;;22.27;15.33;;;11.10;99.90;;;;;;5027160;28;20435;-69
2021/10/09 07:05:43;;;;;;;23.60;17.43;;;11.10;99.90;;;;;;5022279;28;20826;-67
2021/10/09 07:08:09;;;;;;;30.87;17.83;;;11.20;99.90;;;;;;5024079;28;20446;-68
2021/10/09 07:10:41;;;;;;;28.20;18.60;;;11.20;99.90;;;;;;5024919;28;20597;-68
2021/10/09 07:13:08;;;;;;;23.50;16.37;;;11.30;99.90;;;;;;5019898;28;20184;-70
2021/10/09 07:15:35;;;;;;;26.20;18.40;;;11.30;99.90;;;;;;5021777;28;20462;-69
2021/10/09 07:18:01;;;;;;;29.43;17.47;;;11.40;99.90;;;;;;5029498;28;20459;-69
2021/10/09 07:20:26;;;;;;;33.27;17.40;;;11.40;99.90;;;;;;5022994;28;20423;-69
2021/10/09 07:22:53;;;;;;;25.13;17.07;;;11.40;99.90;;;;;;5019505;28;20193;-69
2021/10/09 07:25:19;;;;;;;34.30;19.10;;;11.40;99.90;;;;;;5024481;28;20211;-69
2021/10/09 07:27:46;;;;;;;25.90;15.53;;;11.30;99.90;;;;;;5023201;28;20435;-68
2021/10/09 07:30:12;;;;;;;25.60;15.60;;;11.30;99.90;;;;;;5023910;28;20966;-68
2021/10/09 07:32:37;;;;;;;22.83;15.33;;;11.40;99.90;;;;;;5006533;28;20451;-69
2021/10/09 07:35:04;;;;;;;29.03;18.37;;;11.40;99.90;;;;;;5022188;28;21010;-69
2021/10/09 07:37:29;;;;;;;24.00;15.47;;;11.50;99.90;;;;;;5023758;28;20213;-69
2021/10/09 07:39:55;;;;;;;23.80;16.30;;;11.60;99.90;;;;;;5026279;28;20470;-69
2021/10/09 07:42:21;;;;;;;26.17;17.20;;;11.60;99.90;;;;;;5024137;28;20272;-70
2021/10/09 07:44:47;;;;;;;27.80;16.43;;;11.70;99.90;;;;;;5023720;28;20185;-70
2021/10/09 07:47:15;;;;;;;24.90;17.30;;;11.70;99.90;;;;;;5026039;28;20275;-70
2021/10/09 07:49:41;;;;;;;24.30;16.23;;;11.70;99.90;;;;;;5028039;28;20455;-69
2021/10/09 07:52:07;;;;;;;20.80;15.70;;;11.80;99.90;;;;;;5022889;28;20410;-69
2021/10/09 07:54:33;;;;;;;26.10;15.57;;;11.70;99.90;;;;;;5020587;28;20423;-70
2021/10/09 07:56:58;;;;;;;22.70;16.83;;;11.80;99.90;;;;;;5010529;28;20203;-69
2021/10/09 07:59:24;;;;;;;21.50;16.10;;;11.80;99.90;;;;;;5020916;28;20220;-69
2021/10/09 08:01:50;;;;;;;32.50;18.30;;;11.90;99.90;;;;;;5023302;28;20189;-69
2021/10/09 08:04:16;;;;;;;24.93;14.40;;;12.00;99.90;;;;;;5018610;28;20570;-69
2021/10/09 08:06:43;;;;;;;17.60;13.83;;;12.10;99.90;;;;;;5023277;28;20267;-70
2021/10/09 08:09:09;;;;;;;22.10;15.20;;;12.00;99.90;;;;;;5004397;28;20570;-68
2021/10/09 08:11:34;;;;;;;26.63;16.60;;;12.00;99.90;;;;;;5007726;28;20510;-70
2021/10/09 08:14:00;;;;;;;22.40;15.57;;;12.20;99.90;;;;;;5023413;28;20739;-69
2021/10/09 08:16:26;;;;;;;20.20;14.30;;;12.10;99.90;;;;;;5025181;28;20189;-69
2021/10/09 08:18:52;;;;;;;23.63;15.40;;;12.10;99.90;;;;;;5020666;28;20216;-69
2021/10/09 08:21:23;;;;;;;19.60;14.07;;;12.10;99.90;;;;;;5008340;28;20427;-69
2021/10/09 08:40:07;;;;;;;26.97;17.80;;;12.20;99.90;;;;;;5020599;28;20470;-68
2021/10/09 08:42:33;;;;;;;22.13;14.90;;;12.20;99.90;;;;;;5023662;28;20945;-68
2021/10/09 08:45:00;;;;;;;22.63;15.20;;;12.30;99.90;;;;;;5021922;28;21112;-68
2021/10/09 08:47:25;;;;;;;20.40;15.27;;;12.30;99.90;;;;;;5021193;28;20439;-69
2021/10/09 08:49:51;;;;;;;25.97;17.13;;;12.40;99.90;;;;;;5023974;28;20680;-68
2021/10/09 08:52:22;;;;;;;24.60;15.90;;;12.50;99.90;;;;;;5026040;28;20279;-68
2021/10/09 08:54:48;;;;;;;17.30;12.90;;;12.50;99.90;;;;;;5019732;28;20675;-68
2021/10/09 08:57:19;;;;;;;20.57;15.53;;;12.60;99.90;;;;;;5022931;28;20938;-69
2021/10/09 08:59:48;;;;;;;20.70;14.07;;;12.60;99.90;;;;;;5019884;28;20451;-68
2021/10/09 09:07:48;;;;;;;23.33;15.17;;;12.80;99.90;;;;;;5027447;28;20419;-68
2021/10/09 09:34:49;;;;;;;24.77;15.13;;;13.40;99.90;;;;;;5026693;28;20422;-68
2021/10/09 09:40:06;;;;;;;21.20;13.37;;;13.50;99.90;;;;;;5029396;28;20451;-69
2021/10/09 09:42:41;;;;;;;20.90;14.43;;;13.60;99.90;;;;;;5026565;28;20469;-68
2021/10/09 09:45:10;;;;;;;19.57;14.07;;;13.70;99.90;;;;;;5024779;28;20423;-69
2021/10/09 09:47:38;;;;;;;23.80;14.60;;;13.80;99.90;;;;;;5026969;28;20522;-69
2021/10/09 09:50:07;;;;;;;18.53;14.60;;;13.80;99.90;;;;;;5026948;28;20809;-69
2021/10/09 09:52:39;;;;;;;23.70;15.53;;;13.90;99.90;;;;;;5024717;28;20485;-69
2021/10/09 09:55:07;;;;;;;24.57;14.23;;;14.00;99.90;;;;;;5023714;28;20442;-69
2021/10/09 09:57:34;;;;;;;19.53;13.87;;;14.10;99.90;;;;;;5027883;28;20566;-69
2021/10/09 10:00:08;;;;;;;22.70;15.23;;;14.10;99.90;;;;;;5022519;28;20459;-69
2021/10/09 10:02:41;;;;;;;20.03;14.97;;;14.20;99.90;;;;;;5026864;28;20426;-69
2021/10/09 10:05:09;;;;;;;23.07;14.70;;;14.20;99.90;;;;;;5026677;28;20439;-68
2021/10/09 10:07:35;;;;;;;18.47;13.90;;;14.20;99.90;;;;;;5023772;28;20999;-69
2021/10/09 10:10:02;;;;;;;19.00;14.07;;;14.30;99.90;;;;;;5022964;28;20467;-69
2021/10/09 10:12:29;;;;;;;17.43;12.93;;;14.30;99.90;;;;;;5021586;28;20443;-69
2021/10/09 10:14:56;;;;;;;21.97;15.33;;;14.40;99.90;;;;;;5019865;28;20450;-69
2021/10/09 10:17:46;;;;;;;19.90;14.73;;;14.40;99.90;;;;;;5025534;28;20427;-69
2021/10/09 10:20:18;;;;;;;26.80;14.93;;;14.50;99.90;;;;;;5030960;28;20453;-69
2021/10/09 10:22:44;;;;;;;20.70;14.93;;;14.50;99.90;;;;;;5022541;28;20532;-69
2021/10/09 10:25:25;;;;;;;18.63;14.70;;;14.60;99.90;;;;;;5026712;28;20461;-69
2021/10/09 10:28:08;;;;;;;22.90;14.87;;;14.70;99.90;;;;;;5022072;28;20227;-69
2021/10/09 10:30:42;;;;;;;21.40;15.50;;;14.80;99.90;;;;;;5024017;28;20445;-69
2021/10/09 10:33:10;;;;;;;23.80;14.33;;;14.90;99.90;;;;;;5025430;28;20459;-69
2021/10/09 10:35:35;;;;;;;18.80;13.63;;;15.00;99.90;;;;;;5025416;28;20417;-67
2021/10/09 10:38:13;;;;;;;20.00;14.87;;;14.90;99.90;;;;;;5021340;28;20844;-69
2021/10/09 10:40:56;;;;;;;20.07;14.97;;;15.00;99.90;;;;;;5024335;28;20196;-69
2021/10/09 10:48:58;;;;;;;17.90;13.30;;;15.20;99.90;;;;;;5022239;28;20447;-69
2021/10/09 10:52:34;;;;;;;23.57;16.57;;;15.40;99.90;;;;;;5027218;28;20422;-69
2021/10/09 10:57:03;;;;;;;18.87;14.93;;;15.50;99.90;;;;;;5023765;28;20498;-69
2021/10/09 10:59:49;;;;;;;19.87;14.40;;;15.60;99.90;;;;;;5024867;28;21011;-69
2021/10/09 11:02:23;;;;;;;20.47;14.17;;;15.70;99.90;;;;;;5024945;28;20438;-70
2021/10/09 11:04:56;;;;;;;22.10;15.93;;;15.80;99.90;;;;;;5021583;28;20821;-69
2021/10/09 11:07:42;;;;;;;16.57;14.53;;;15.80;99.90;;;;;;5019817;28;20477;-69
2021/10/09 11:10:10;;;;;;;18.53;12.80;;;15.80;99.90;;;;;;5008313;28;20473;-69
2021/10/09 11:12:41;;;;;;;18.63;14.00;;;16.00;99.90;;;;;;5024151;28;20481;-69
2021/10/09 11:15:23;;;;;;;20.13;14.30;;;15.90;99.90;;;;;;5021165;28;20523;-69
2021/10/09 11:18:00;;;;;;;18.57;14.03;;;16.00;99.90;;;;;;5024737;28;20462;-68
2021/10/09 11:20:33;;;;;;;17.83;14.17;;;16.00;99.90;;;;;;5024566;28;20430;-69
2021/10/09 11:23:02;;;;;;;18.20;13.33;;;16.00;99.90;;;;;;5026069;28;20554;-69
2021/10/09 11:25:34;;;;;;;20.30;13.50;;;16.10;99.90;;;;;;5023118;28;20420;-68
2021/10/09 11:28:03;;;;;;;18.30;13.93;;;16.20;99.90;;;;;;5024841;28;20431;-69
2021/10/09 11:30:30;;;;;;;17.23;13.37;;;16.20;99.90;;;;;;5025354;28;20475;-69
2021/10/09 11:32:57;;;;;;;19.17;13.33;;;16.30;99.90;;;;;;5023275;28;20419;-69
2021/10/09 11:35:35;;;;;;;16.40;13.33;;;16.40;99.90;;;;;;5024117;28;20950;-69
2021/10/09 11:38:03;;;;;;;17.70;14.07;;;16.50;99.90;;;;;;5020438;28;20606;-69
2021/10/09 11:40:52;;;;;;;15.17;12.53;;;16.70;99.90;;;;;;5025040;28;20423;-69
2021/10/09 11:43:28;;;;;;;16.27;13.23;;;16.90;99.90;;;;;;5024136;28;20435;-69
2021/10/09 11:46:02;;;;;;;18.83;13.80;;;17.10;99.90;;;;;;5027037;28;20423;-69
2021/10/09 11:56:45;;;;;;;15.63;11.50;;;19.30;99.90;;;;;;5023672;28;20502;-69
2021/10/09 11:59:11;;;;;;;16.47;12.30;;;21.60;99.90;;;;;;5022167;28;20478;-69
2021/10/09 12:01:47;;;;;;;14.30;11.20;;;24.20;99.90;;;;;;5023310;28;20815;-69
2021/10/09 12:04:22;;;;;;;15.10;11.70;;;28.10;99.70;;;;;;5021828;28;20427;-69
2021/10/09 12:06:58;;;;;;;14.00;11.77;;;28.70;96.70;;;;;;5024515;28;20431;-68
2021/10/09 12:09:36;;;;;;;15.33;11.67;;;30.20;90.00;;;;;;5021360;28;20538;-68
2021/10/09 12:12:12;;;;;;;13.67;12.37;;;31.80;77.60;;;;;;5020702;28;20424;-69
2021/10/09 12:14:38;;;;;;;13.83;12.40;;;33.20;68.90;;;;;;5026226;28;20453;-68
2021/10/09 12:17:04;;;;;;;13.80;11.83;;;33.70;60.60;;;;;;5022889;28;20518;-68
2021/10/09 12:19:30;;;;;;;13.10;11.90;;;34.10;58.60;;;;;;5022644;28;20265;-68
2021/10/09 12:22:05;;;;;;;13.43;12.13;;;34.90;56.40;;;;;;5024424;28;20187;-68
2021/10/09 12:24:46;;;;;;;14.93;12.30;;;34.80;54.50;;;;;;5022023;28;20539;-68
2021/10/09 12:27:17;;;;;;;15.97;12.13;;;35.00;52.70;;;;;;5022129;28;20405;-69
2021/10/09 12:29:58;;;;;;;13.00;11.70;;;35.40;52.20;;;;;;5026231;28;21021;-68
2021/10/09 12:32:24;;;;;;;17.60;12.63;;;35.60;50.20;;;;;;5021774;28;20454;-68
2021/10/09 12:35:12;;;;;;;15.60;12.50;;;35.40;49.40;;;;;;5022395;28;20431;-69
2021/10/09 12:37:54;;;;;;;13.73;12.30;;;35.10;49.20;;;;;;5024384;28;20410;-69
2021/10/09 12:40:20;;;;;;;14.80;11.17;;;35.30;48.50;;;;;;5024665;28;20466;-68
2021/10/09 12:42:55;;;;;;;13.20;11.90;;;34.60;48.30;;;;;;5004150;28;20410;-68
2021/10/09 12:45:22;;;;;;;18.60;11.77;;;34.60;48.80;;;;;;5022530;28;20187;-68
2021/10/09 12:47:48;;;;;;;15.20;10.80;;;35.10;48.30;;;;;;5022111;28;20459;-67
2021/10/09 12:50:14;;;;;;;17.80;11.37;;;35.00;48.20;;;;;;5003539;28;20798;-68
2021/10/09 12:52:40;;;;;;;15.37;12.00;;;34.60;47.70;;;;;;5023808;28;20393;-67
2021/10/09 12:55:06;;;;;;;15.77;11.40;;;34.80;47.80;;;;;;5021564;28;20203;-69
2021/10/09 12:57:34;;;;;;;14.43;13.13;;;34.50;47.90;;;;;;5019421;28;20196;-68
2021/10/09 13:00:00;;;;;;;14.00;12.07;;;34.10;48.20;;;;;;5022667;28;20462;-68
2021/10/09 13:02:26;;;;;;;14.23;10.77;;;32.40;48.60;;;;;;5023155;28;20522;-67
2021/10/09 13:04:52;;;;;;;13.23;11.70;;;31.00;50.30;;;;;;5019438;28;20439;-68
2021/10/09 13:07:18;;;;;;;13.83;12.37;;;30.20;51.10;;;;;;5023594;28;20497;-68
2021/10/09 13:09:44;;;;;;;15.37;12.63;;;29.60;52.80;;;;;;5022479;28;20232;-67
2021/10/09 13:12:13;;;;;;;12.93;11.73;;;29.70;53.20;;;;;;5005228;28;20312;-68
2021/10/09 13:14:38;;;;;;;14.97;12.20;;;29.80;52.90;;;;;;5022419;28;20215;-68
2021/10/09 13:17:04;;;;;;;13.67;11.43;;;29.40;53.70;;;;;;5018261;28;21006;-68
2021/10/09 13:19:30;;;;;;;14.57;12.30;;;30.00;53.30;;;;;;5024374;28;20208;-68
2021/10/09 13:21:55;;;;;;;12.50;11.33;;;30.60;51.90;;;;;;5025636;28;20607;-67
2021/10/09 13:24:21;;;;;;;12.83;11.53;;;30.80;51.90;;;;;;5001675;28;20243;-68
2021/10/09 13:26:47;;;;;;;12.17;10.97;;;31.50;51.20;;;;;;5021639;28;20196;-68
2021/10/09 13:29:13;;;;;;;12.53;11.33;;;32.00;50.30;;;;;;5021754;28;20494;-68
2021/10/09 13:31:38;;;;;;;13.40;11.60;;;32.10;49.80;;;;;;5020143;28;20204;-69
2021/10/09 13:34:04;;;;;;;14.03;12.23;;;32.70;49.80;;;;;;5021650;28;20653;-68
2021/10/09 13:36:30;;;;;;;16.50;11.57;;;32.90;48.80;;;;;;5023050;28;20185;-69
2021/10/09 13:38:56;;;;;;;12.90;11.60;;;32.90;48.40;;;;;;5022726;28;20216;-68
2021/10/09 13:41:22;;;;;;;12.70;11.50;;;32.90;48.90;;;;;;5023750;28;20246;-69
2021/10/09 13:43:48;;;;;;;14.10;10.63;;;32.60;48.80;;;;;;5020566;28;20942;-69
2021/10/09 13:46:14;;;;;;;11.43;10.33;;;32.00;49.30;;;;;;5019170;28;20204;-68
2021/10/09 13:48:41;;;;;;;14.40;12.67;;;32.30;49.20;;;;;;5022458;28;20481;-68
2021/10/09 13:51:12;;;;;;;12.63;11.33;;;32.20;48.90;;;;;;5024080;28;20430;-68
2021/10/09 13:53:39;;;;;;;13.37;11.73;;;31.80;49.10;;;;;;5025183;28;20459;-68
2021/10/09 13:56:05;;;;;;;12.30;11.00;;;31.20;49.20;;;;;;5023463;28;20427;-68
2021/10/09 13:58:31;;;;;;;13.50;12.10;;;30.50;49.90;;;;;;5026027;28;20451;-69
2021/10/09 14:00:56;;;;;;;14.37;12.60;;;29.80;50.70;;;;;;5024214;28;20201;-68
2021/10/09 14:03:22;;;;;;;13.07;11.27;;;28.80;51.80;;;;;;5026412;28;20204;-68
2021/10/09 14:05:47;;;;;;;13.63;11.90;;;28.30;53.10;;;;;;5027352;28;20200;-68
2021/10/09 14:08:13;;;;;;;17.87;11.90;;;27.80;53.60;;;;;;5023399;28;20201;-69
2021/10/09 14:10:39;;;;;;;14.63;11.70;;;27.20;54.40;;;;;;5025649;28;20285;-68
2021/10/09 14:13:07;;;;;;;15.13;11.43;;;26.30;55.70;;;;;;5026622;28;20196;-68
2021/10/09 14:15:33;;;;;;;13.97;11.47;;;25.70;57.00;;;;;;5025184;28;20192;-68
2021/10/09 14:17:58;;;;;;;15.63;11.30;;;25.20;58.10;;;;;;5025705;28;20450;-68
2021/10/09 14:20:24;;;;;;;14.60;11.33;;;25.00;58.60;;;;;;5025039;28;20255;-68
2021/10/09 14:22:50;;;;;;;14.30;11.57;;;24.70;59.40;;;;;;5026279;28;20211;-69
2021/10/09 14:25:16;;;;;;;13.27;11.60;;;24.30;59.90;;;;;;5007225;28;20279;-68
2021/10/09 14:27:42;;;;;;;12.50;10.87;;;24.10;60.60;;;;;;5024945;28;20491;-67
2021/10/09 14:30:09;;;;;;;14.17;11.13;;;23.90;61.60;;;;;;5024649;28;20710;-68
2021/10/09 14:32:36;;;;;;;20.10;12.33;;;23.60;62.40;;;;;;5023836;28;20797;-69
2021/10/09 14:35:03;;;;;;;14.10;11.50;;;23.70;62.30;;;;;;5027933;28;24486;-69
2021/10/09 14:37:29;;;;;;;17.50;15.67;;;23.40;62.60;;;;;;5022452;28;20973;-69
2021/10/09 14:39:55;;;;;;;13.57;11.70;;;23.30;63.50;;;;;;5022071;28;20444;-69
2021/10/09 14:42:21;;;;;;;13.37;11.90;;;23.10;63.70;;;;;;5026532;28;20204;-69
2021/10/09 14:44:48;;;;;;;17.53;14.43;;;22.90;63.80;;;;;;5026012;28;20423;-69
2021/10/09 14:53:09;;;;;;;13.60;11.40;;;22.50;64.90;;;;;;5022857;28;20432;-68
2021/10/09 15:17:22;;;;;;;12.67;10.50;;;21.20;70.00;;;;;;5022753;28;20431;-68
2021/10/09 15:19:48;;;;;;;13.80;12.07;;;21.00;70.60;;;;;;5023201;28;20609;-68